Time,TemperatureF,DewpointF,PressureIn,WindDirection,WindDirectionDegrees,WindSpeedMPH,WindSpeedGustMPH,Humidity,HourlyPrecipIn,Conditions,Clouds,dailyrainin,SoftwareType,DateUTC
2013-04-26 00:12:00,49.3,45.3,30.12,WSW,247,0.0,-999.0,86,-99.99,,,0.00,Acu-Link.com,2013-04-26 07:12:00,
2013-04-26 00:27:00,48.7,44.7,30.12,WSW,247,1.1,-999.0,86,-99.99,,,0.00,Acu-Link.com,2013-04-26 07:27:00,
2013-04-26 00:42:00,48.7,44.7,30.12,WSW,247,0.0,-999.0,86,-99.99,,,0.00,Acu-Link.com,2013-04-26 07:42:00,
2013-04-26 00:58:00,48.2,44.5,30.13,WSW,247,0.0,-999.0,87,-99.99,,,0.00,Acu-Link.com,2013-04-26 07:58:00,
2013-04-26 01:13:00,47.8,44.1,30.13,WSW,247,0.0,-999.0,87,-99.99,,,0.00,Acu-Link.com,2013-04-26 08:13:00,
2013-04-26 01:28:00,47.7,44.0,30.12,WSW,247,1.7,-999.0,87,-99.99,,,0.00,Acu-Link.com,2013-04-26 08:28:00,
2013-04-26 01:43:00,47.8,44.4,30.12,WSW,247,0.0,-999.0,88,-99.99,,,0.00,Acu-Link.com,2013-04-26 08:43:00,
2013-04-26 01:58:00,48.0,44.9,30.12,WSW,247,0.0,-999.0,89,-99.99,,,0.00,Acu-Link.com,2013-04-26 08:58:00,
2013-04-26 02:13:00,48.0,44.9,30.12,WSW,247,0.0,-999.0,89,-99.99,,,0.00,Acu-Link.com,2013-04-26 09:13:00,
2013-04-26 02:29:00,48.0,44.9,30.12,WSW,247,1.7,-999.0,89,-99.99,,,0.00,Acu-Link.com,2013-04-26 09:29:00,
2013-04-26 02:44:00,48.0,44.9,30.12,WSW,247,1.1,-999.0,89,-99.99,,,0.00,Acu-Link.com,2013-04-26 09:44:00,
2013-04-26 02:59:00,48.0,44.9,30.11,WSW,247,0.0,-999.0,89,-99.99,,,0.00,Acu-Link.com,2013-04-26 09:59:00,
2013-04-26 03:14:00,47.8,44.7,30.12,WSW,247,0.0,-999.0,89,-99.99,,,0.00,Acu-Link.com,2013-04-26 10:14:00,
2013-04-26 03:29:00,47.7,44.6,30.12,WSW,247,0.0,-999.0,89,-99.99,,,0.00,Acu-Link.com,2013-04-26 10:29:00,
2013-04-26 03:45:00,47.5,44.4,30.12,WSW,247,0.0,-999.0,89,-99.99,,,0.00,Acu-Link.com,2013-04-26 10:45:00,
2013-04-26 04:00:00,47.1,44.0,30.12,WSW,247,0.0,-999.0,89,-99.99,,,0.00,Acu-Link.com,2013-04-26 11:00:00,
2013-04-26 04:15:00,47.1,44.0,30.12,WSW,247,1.7,-999.0,89,-99.99,,,0.00,Acu-Link.com,2013-04-26 11:15:00,
2013-04-26 04:30:00,47.1,44.0,30.12,WSW,247,1.1,-999.0,89,-99.99,,,0.00,Acu-Link.com,2013-04-26 11:30:00,
2013-04-26 04:45:00,46.9,43.8,30.12,WSW,247,0.0,-999.0,89,-99.99,,,0.00,Acu-Link.com,2013-04-26 11:45:00,
2013-04-26 05:01:00,46.4,43.3,30.11,WSW,247,0.0,-999.0,89,-99.99,,,0.00,Acu-Link.com,2013-04-26 12:01:00,
2013-04-26 05:16:00,46.4,43.3,30.12,WSW,247,0.0,-999.0,89,-99.99,,,0.00,Acu-Link.com,2013-04-26 12:16:00,
2013-04-26 05:31:00,46.2,43.1,30.11,WSW,247,0.0,-999.0,89,-99.99,,,0.00,Acu-Link.com,2013-04-26 12:31:00,
2013-04-26 05:46:00,46.2,43.4,30.11,WSW,247,1.7,-999.0,90,-99.99,,,0.00,Acu-Link.com,2013-04-26 12:46:00,
2013-04-26 06:01:00,46.2,43.4,30.12,WSW,247,1.1,-999.0,90,-99.99,,,0.00,Acu-Link.com,2013-04-26 13:01:00,
2013-04-26 06:17:00,46.2,43.4,30.13,WSW,247,1.7,-999.0,90,-99.99,,,0.00,Acu-Link.com,2013-04-26 13:17:00,
2013-04-26 06:32:00,46.6,43.8,30.13,WSW,247,2.2,-999.0,90,-99.99,,,0.00,Acu-Link.com,2013-04-26 13:32:00,
2013-04-26 06:47:00,47.1,44.3,30.13,WSW,247,0.0,-999.0,90,-99.99,,,0.00,Acu-Link.com,2013-04-26 13:47:00,
2013-04-26 07:02:00,48.2,45.4,30.13,WSW,247,0.0,-999.0,90,-99.99,,,0.00,Acu-Link.com,2013-04-26 14:02:00,
2013-04-26 07:18:00,50.0,46.9,30.14,WSW,247,2.2,-999.0,89,-99.99,,,0.00,Acu-Link.com,2013-04-26 14:18:00,
2013-04-26 07:33:00,51.8,48.1,30.14,WSW,247,0.0,-999.0,87,-99.99,,,0.00,Acu-Link.com,2013-04-26 14:33:00,
2013-04-26 07:48:00,55.6,50.8,30.14,WSW,247,1.7,-999.0,84,-99.99,,,0.00,Acu-Link.com,2013-04-26 14:48:00,
2013-04-26 08:03:00,59.7,53.5,30.13,WSW,247,2.7,-999.0,80,-99.99,,,0.00,Acu-Link.com,2013-04-26 15:03:00,
2013-04-26 08:18:00,62.8,55.1,30.13,WSW,247,1.7,-999.0,76,-99.99,,,0.00,Acu-Link.com,2013-04-26 15:18:00,
2013-04-26 08:34:00,66.7,57.8,30.13,NNE,22,2.7,-999.0,73,-99.99,,,0.00,Acu-Link.com,2013-04-26 15:34:00,
2013-04-26 08:49:00,69.3,58.7,30.14,NNE,22,1.7,-999.0,69,-99.99,,,0.00,Acu-Link.com,2013-04-26 15:49:00,
2013-04-26 09:04:00,68.9,57.1,30.13,South,180,3.2,-999.0,66,-99.99,,,0.00,Acu-Link.com,2013-04-26 16:04:00,
2013-04-26 09:19:00,71.4,58.6,30.13,SSE,157,1.1,-999.0,64,-99.99,,,0.00,Acu-Link.com,2013-04-26 16:19:00,
2013-04-26 09:34:00,68.5,55.0,30.14,SSW,202,2.7,-999.0,62,-99.99,,,0.00,Acu-Link.com,2013-04-26 16:34:00,
2013-04-26 09:50:00,68.5,54.5,30.14,ESE,112,3.2,-999.0,61,-99.99,,,0.00,Acu-Link.com,2013-04-26 16:50:00,
2013-04-26 10:05:00,68.0,54.0,30.14,South,180,4.2,-999.0,61,-99.99,,,0.00,Acu-Link.com,2013-04-26 17:05:00,
2013-04-26 10:20:00,70.5,55.9,30.13,SSW,202,5.3,-999.0,60,-99.99,,,0.00,Acu-Link.com,2013-04-26 17:20:00,
2013-04-26 10:35:00,70.0,55.0,30.14,ESE,112,6.3,-999.0,59,-99.99,,,0.00,Acu-Link.com,2013-04-26 17:35:00,
2013-04-26 10:50:00,70.9,55.8,30.13,SSW,202,3.2,-999.0,59,-99.99,,,0.00,Acu-Link.com,2013-04-26 17:50:00,
2013-04-26 11:06:00,70.5,55.0,30.14,SW,225,4.2,-999.0,58,-99.99,,,0.00,Acu-Link.com,2013-04-26 18:06:00,
2013-04-26 11:21:00,73.4,57.7,30.13,SSE,157,4.7,-999.0,58,-99.99,,,0.00,Acu-Link.com,2013-04-26 18:21:00,
2013-04-26 11:36:00,73.0,56.9,30.13,SW,225,6.8,-999.0,57,-99.99,,,0.00,Acu-Link.com,2013-04-26 18:36:00,
2013-04-26 11:51:00,72.9,56.8,30.13,South,180,6.3,-999.0,57,-99.99,,,0.00,Acu-Link.com,2013-04-26 18:51:00,
2013-04-26 12:07:00,74.1,57.9,30.12,SSE,157,8.3,-999.0,57,-99.99,,,0.00,Acu-Link.com,2013-04-26 19:07:00,
2013-04-26 12:22:00,73.8,57.6,30.13,SSE,157,8.9,-999.0,57,-99.99,,,0.00,Acu-Link.com,2013-04-26 19:22:00,
2013-04-26 12:37:00,74.8,58.0,30.12,SSW,202,7.3,-999.0,56,-99.99,,,0.00,Acu-Link.com,2013-04-26 19:37:00,
2013-04-26 12:52:00,73.8,57.1,30.12,SSE,157,4.7,-999.0,56,-99.99,,,0.00,Acu-Link.com,2013-04-26 19:52:00,
2013-04-26 13:07:00,75.4,58.1,30.12,SW,225,6.8,-999.0,55,-99.99,,,0.00,Acu-Link.com,2013-04-26 20:07:00,
2013-04-26 13:23:00,74.1,56.9,30.13,WSW,247,7.8,-999.0,55,-99.99,,,0.00,Acu-Link.com,2013-04-26 20:23:00,
2013-04-26 13:38:00,73.6,55.9,30.12,SW,225,7.8,-999.0,54,-99.99,,,0.00,Acu-Link.com,2013-04-26 20:38:00,
2013-04-26 13:53:00,73.9,56.2,30.12,SW,225,9.4,-999.0,54,-99.99,,,0.00,Acu-Link.com,2013-04-26 20:53:00,
2013-04-26 14:08:00,72.3,54.7,30.11,SSW,202,5.8,-999.0,54,-99.99,,,0.00,Acu-Link.com,2013-04-26 21:08:00,
2013-04-26 14:23:00,72.9,55.3,30.10,SW,225,5.8,-999.0,54,-99.99,,,0.00,Acu-Link.com,2013-04-26 21:23:00,
2013-04-26 14:39:00,72.9,55.3,30.10,SW,225,6.8,-999.0,54,-99.99,,,0.00,Acu-Link.com,2013-04-26 21:39:00,
2013-04-26 14:54:00,73.0,55.4,30.09,South,180,7.3,-999.0,54,-99.99,,,0.00,Acu-Link.com,2013-04-26 21:54:00,
2013-04-26 15:09:00,72.9,55.3,30.10,SSW,202,8.9,-999.0,54,-99.99,,,0.00,Acu-Link.com,2013-04-26 22:09:00,
2013-04-26 15:24:00,73.8,56.1,30.09,South,180,5.8,-999.0,54,-99.99,,,0.00,Acu-Link.com,2013-04-26 22:24:00,
2013-04-26 15:39:00,72.1,54.5,30.09,SW,225,6.8,-999.0,54,-99.99,,,0.00,Acu-Link.com,2013-04-26 22:39:00,
2013-04-26 15:55:00,72.1,54.5,30.09,SSW,202,4.7,-999.0,54,-99.99,,,0.00,Acu-Link.com,2013-04-26 22:55:00,
2013-04-26 16:10:00,72.1,54.5,30.07,WSW,247,6.3,-999.0,54,-99.99,,,0.00,Acu-Link.com,2013-04-26 23:10:00,
2013-04-26 16:25:00,72.1,54.5,30.05,SW,225,7.3,-999.0,54,-99.99,,,0.00,Acu-Link.com,2013-04-26 23:25:00,
2013-04-26 16:40:00,72.1,54.5,30.05,South,180,5.3,-999.0,54,-99.99,,,0.00,Acu-Link.com,2013-04-26 23:40:00,
2013-04-26 17:11:00,72.1,54.5,30.05,South,180,6.8,-999.0,54,-99.99,,,0.00,Acu-Link.com,2013-04-27 00:11:00,
2013-04-26 17:26:00,72.1,54.5,30.04,WSW,247,4.2,-999.0,54,-99.99,,,0.00,Acu-Link.com,2013-04-27 00:26:00,
2013-04-26 17:41:00,72.1,54.5,30.05,ESE,112,6.8,-999.0,54,-99.99,,,0.00,Acu-Link.com,2013-04-27 00:41:00,
2013-04-26 17:56:00,72.1,54.5,30.06,SSW,202,3.2,-999.0,54,-99.99,,,0.00,Acu-Link.com,2013-04-27 00:56:00,
2013-04-26 18:12:00,72.1,54.5,30.05,SSW,202,3.7,-999.0,54,-99.99,,,0.00,Acu-Link.com,2013-04-27 01:12:00,
2013-04-26 18:27:00,72.1,54.5,30.05,South,180,4.7,-999.0,54,-99.99,,,0.00,Acu-Link.com,2013-04-27 01:27:00,
2013-04-26 18:42:00,72.1,54.5,30.06,SW,225,4.2,-999.0,54,-99.99,,,0.00,Acu-Link.com,2013-04-27 01:42:00,
2013-04-26 18:57:00,72.1,54.5,30.07,WSW,247,0.0,-999.0,54,-99.99,,,0.00,Acu-Link.com,2013-04-27 01:57:00,
2013-04-26 19:12:00,72.1,54.5,30.08,WSW,247,0.0,-999.0,54,-99.99,,,0.00,Acu-Link.com,2013-04-27 02:12:00,
2013-04-26 19:28:00,61.0,50.8,30.08,WSW,247,1.1,-999.0,69,-99.99,,,0.00,Acu-Link.com,2013-04-27 02:28:00,
2013-04-26 19:43:00,59.7,50.3,30.08,WSW,247,2.2,-999.0,71,-99.99,,,0.00,Acu-Link.com,2013-04-27 02:43:00,
2013-04-26 19:58:00,58.6,50.0,30.09,WSW,247,0.0,-999.0,73,-99.99,,,0.00,Acu-Link.com,2013-04-27 02:58:00,
2013-04-26 20:13:00,57.9,50.0,30.10,WSW,247,0.0,-999.0,75,-99.99,,,0.00,Acu-Link.com,2013-04-27 03:13:00,
2013-04-26 20:28:00,56.8,49.3,30.09,WSW,247,0.0,-999.0,76,-99.99,,,0.00,Acu-Link.com,2013-04-27 03:28:00,
2013-04-26 20:44:00,55.9,49.1,30.10,WSW,247,0.0,-999.0,78,-99.99,,,0.00,Acu-Link.com,2013-04-27 03:44:00,
2013-04-26 20:59:00,55.9,49.5,30.11,WSW,247,0.0,-999.0,79,-99.99,,,0.00,Acu-Link.com,2013-04-27 03:59:00,
2013-04-26 21:14:00,55.2,49.1,30.10,WSW,247,0.0,-999.0,80,-99.99,,,0.00,Acu-Link.com,2013-04-27 04:14:00,
2013-04-26 21:29:00,54.5,49.1,30.09,WSW,247,0.0,-999.0,82,-99.99,,,0.00,Acu-Link.com,2013-04-27 04:29:00,
2013-04-26 21:45:00,54.3,49.2,30.09,WSW,247,0.0,-999.0,83,-99.99,,,0.00,Acu-Link.com,2013-04-27 04:45:00,
2013-04-26 22:00:00,53.8,49.1,30.10,WSW,247,0.0,-999.0,84,-99.99,,,0.00,Acu-Link.com,2013-04-27 05:00:00,
2013-04-26 22:15:00,53.4,49.0,30.11,WSW,247,0.0,-999.0,85,-99.99,,,0.00,Acu-Link.com,2013-04-27 05:15:00,
2013-04-26 22:30:00,53.1,49.0,30.12,WSW,247,0.0,-999.0,86,-99.99,,,0.00,Acu-Link.com,2013-04-27 05:30:00,
2013-04-26 22:46:00,52.5,48.4,30.12,WSW,247,0.0,-999.0,86,-99.99,,,0.00,Acu-Link.com,2013-04-27 05:46:00,
2013-04-26 23:01:00,52.2,48.1,30.12,WSW,247,0.0,-999.0,86,-99.99,,,0.00,Acu-Link.com,2013-04-27 06:01:00,
2013-04-26 23:16:00,51.8,48.1,30.12,WSW,247,0.0,-999.0,87,-99.99,,,0.00,Acu-Link.com,2013-04-27 06:16:00,
2013-04-26 23:31:00,51.6,48.2,30.12,WSW,247,1.1,-999.0,88,-99.99,,,0.00,Acu-Link.com,2013-04-27 06:31:00,
2013-04-26 23:46:00,51.3,47.9,30.12,WSW,247,0.0,-999.0,88,-99.99,,,0.00,Acu-Link.com,2013-04-27 06:46:00,